sensor_id;sensor_type;location;lat;lon;timestamp;P1;durP1;ratioP1;P2;durP2;ratioP2
22937;SDS011;11634;42.734;23.298;2023-12-20T00:00:17;180.00;;;116.53;;
22937;SDS011;11634;42.734;23.298;2023-12-20T00:02:44;185.07;;;117.47;;
22937;SDS011;11634;42.734;23.298;2023-12-20T00:05:13;177.93;;;111.60;;
22937;SDS011;11634;42.734;23.298;2023-12-20T00:07:39;158.27;;;97.60;;
22937;SDS011;11634;42.734;23.298;2023-12-20T00:10:04;211.10;;;137.07;;
22937;SDS011;11634;42.734;23.298;2023-12-20T00:12:32;201.87;;;130.80;;
22937;SDS011;11634;42.734;23.298;2023-12-20T00:14:58;200.27;;;129.13;;
22937;SDS011;11634;42.734;23.298;2023-12-20T00:17:24;205.50;;;129.23;;
22937;SDS011;11634;42.734;23.298;2023-12-20T00:19:51;197.73;;;127.30;;
22937;SDS011;11634;42.734;23.298;2023-12-20T00:22:18;158.23;;;93.30;;
22937;SDS011;11634;42.734;23.298;2023-12-20T00:24:46;175.07;;;95.17;;
22937;SDS011;11634;42.734;23.298;2023-12-20T00:27:13;373.10;;;76.50;;
22937;SDS011;11634;42.734;23.298;2023-12-20T00:29:39;400.37;;;78.73;;
22937;SDS011;11634;42.734;23.298;2023-12-20T00:32:06;385.37;;;84.80;;
22937;SDS011;11634;42.734;23.298;2023-12-20T00:34:31;337.30;;;79.97;;
22937;SDS011;11634;42.734;23.298;2023-12-20T00:36:58;217.53;;;66.07;;
22937;SDS011;11634;42.734;23.298;2023-12-20T00:39:23;334.10;;;72.30;;
22937;SDS011;11634;42.734;23.298;2023-12-20T00:41:49;269.17;;;95.77;;
22937;SDS011;11634;42.734;23.298;2023-12-20T00:44:16;211.50;;;87.37;;
22937;SDS011;11634;42.734;23.298;2023-12-20T00:46:43;216.77;;;73.93;;
22937;SDS011;11634;42.734;23.298;2023-12-20T00:49:11;260.73;;;93.77;;
22937;SDS011;11634;42.734;23.298;2023-12-20T00:51:38;229.60;;;77.43;;
22937;SDS011;11634;42.734;23.298;2023-12-20T00:54:04;221.37;;;85.90;;
22937;SDS011;11634;42.734;23.298;2023-12-20T00:56:29;220.73;;;88.70;;
22937;SDS011;11634;42.734;23.298;2023-12-20T00:58:58;259.47;;;95.83;;
22937;SDS011;11634;42.734;23.298;2023-12-20T01:01:25;449.23;;;103.87;;
22937;SDS011;11634;42.734;23.298;2023-12-20T01:03:51;278.97;;;90.90;;
22937;SDS011;11634;42.734;23.298;2023-12-20T01:06:22;266.87;;;90.27;;
22937;SDS011;11634;42.734;23.298;2023-12-20T01:08:47;340.70;;;103.00;;
22937;SDS011;11634;42.734;23.298;2023-12-20T01:11:14;265.83;;;91.53;;
22937;SDS011;11634;42.734;23.298;2023-12-20T01:13:40;279.97;;;94.10;;
22937;SDS011;11634;42.734;23.298;2023-12-20T01:16:05;355.33;;;97.23;;
22937;SDS011;11634;42.734;23.298;2023-12-20T01:18:31;229.03;;;77.73;;
22937;SDS011;11634;42.734;23.298;2023-12-20T01:21:00;216.97;;;80.77;;
22937;SDS011;11634;42.734;23.298;2023-12-20T01:23:28;217.30;;;79.63;;
22937;SDS011;11634;42.734;23.298;2023-12-20T01:25:55;220.13;;;82.27;;
22937;SDS011;11634;42.734;23.298;2023-12-20T01:28:21;154.97;;;71.80;;
22937;SDS011;11634;42.734;23.298;2023-12-20T01:30:48;156.07;;;72.30;;
22937;SDS011;11634;42.734;23.298;2023-12-20T01:33:15;123.37;;;64.57;;
22937;SDS011;11634;42.734;23.298;2023-12-20T01:35:41;163.80;;;69.53;;
22937;SDS011;11634;42.734;23.298;2023-12-20T01:38:07;152.03;;;69.97;;
22937;SDS011;11634;42.734;23.298;2023-12-20T01:40:32;152.53;;;69.80;;
22937;SDS011;11634;42.734;23.298;2023-12-20T01:43:01;147.30;;;68.67;;
22937;SDS011;11634;42.734;23.298;2023-12-20T01:45:26;158.30;;;69.27;;
22937;SDS011;11634;42.734;23.298;2023-12-20T01:47:54;148.27;;;73.70;;
22937;SDS011;11634;42.734;23.298;2023-12-20T01:50:21;168.57;;;73.70;;
22937;SDS011;11634;42.734;23.298;2023-12-20T01:52:49;211.83;;;76.77;;
22937;SDS011;11634;42.734;23.298;2023-12-20T01:55:20;176.33;;;69.83;;
22937;SDS011;11634;42.734;23.298;2023-12-20T01:57:47;251.30;;;77.27;;
22937;SDS011;11634;42.734;23.298;2023-12-20T02:00:15;307.43;;;74.13;;
22937;SDS011;11634;42.734;23.298;2023-12-20T02:02:41;190.70;;;63.77;;
22937;SDS011;11634;42.734;23.298;2023-12-20T02:05:08;176.63;;;61.27;;
22937;SDS011;11634;42.734;23.298;2023-12-20T02:07:34;160.73;;;55.10;;
22937;SDS011;11634;42.734;23.298;2023-12-20T02:10:01;207.30;;;58.93;;
22937;SDS011;11634;42.734;23.298;2023-12-20T02:12:28;173.67;;;53.57;;
22937;SDS011;11634;42.734;23.298;2023-12-20T02:14:54;114.90;;;48.77;;
22937;SDS011;11634;42.734;23.298;2023-12-20T02:17:20;138.67;;;52.47;;
22937;SDS011;11634;42.734;23.298;2023-12-20T02:19:46;104.53;;;49.17;;
22937;SDS011;11634;42.734;23.298;2023-12-20T02:22:13;88.53;;;47.50;;
22937;SDS011;11634;42.734;23.298;2023-12-20T02:24:39;87.57;;;49.10;;
22937;SDS011;11634;42.734;23.298;2023-12-20T02:27:08;82.37;;;46.20;;
22937;SDS011;11634;42.734;23.298;2023-12-20T02:29:35;77.80;;;44.20;;
22937;SDS011;11634;42.734;23.298;2023-12-20T02:32:03;75.97;;;43.33;;
22937;SDS011;11634;42.734;23.298;2023-12-20T02:34:29;68.30;;;41.03;;
22937;SDS011;11634;42.734;23.298;2023-12-20T02:36:57;74.30;;;43.00;;
22937;SDS011;11634;42.734;23.298;2023-12-20T02:39:25;77.73;;;42.10;;
22937;SDS011;11634;42.734;23.298;2023-12-20T02:41:50;75.80;;;43.03;;
22937;SDS011;11634;42.734;23.298;2023-12-20T02:44:16;77.33;;;44.73;;
22937;SDS011;11634;42.734;23.298;2023-12-20T02:46:41;68.07;;;41.47;;
22937;SDS011;11634;42.734;23.298;2023-12-20T02:49:08;69.57;;;41.47;;
22937;SDS011;11634;42.734;23.298;2023-12-20T02:51:38;73.37;;;44.83;;
22937;SDS011;11634;42.734;23.298;2023-12-20T02:54:04;76.50;;;46.30;;
22937;SDS011;11634;42.734;23.298;2023-12-20T02:56:33;93.80;;;46.37;;
22937;SDS011;11634;42.734;23.298;2023-12-20T02:59:00;82.70;;;45.40;;
22937;SDS011;11634;42.734;23.298;2023-12-20T03:01:26;87.47;;;48.00;;
22937;SDS011;11634;42.734;23.298;2023-12-20T03:03:51;98.30;;;47.43;;
22937;SDS011;11634;42.734;23.298;2023-12-20T03:06:18;94.87;;;50.00;;
22937;SDS011;11634;42.734;23.298;2023-12-20T03:08:45;96.77;;;52.13;;
22937;SDS011;11634;42.734;23.298;2023-12-20T03:11:14;101.33;;;51.63;;
22937;SDS011;11634;42.734;23.298;2023-12-20T03:13:41;131.97;;;53.97;;
22937;SDS011;11634;42.734;23.298;2023-12-20T03:16:28;99.77;;;50.40;;
22937;SDS011;11634;42.734;23.298;2023-12-20T03:18:53;108.43;;;48.77;;
22937;SDS011;11634;42.734;23.298;2023-12-20T03:21:22;175.47;;;59.27;;
22937;SDS011;11634;42.734;23.298;2023-12-20T03:23:50;167.80;;;62.13;;
22937;SDS011;11634;42.734;23.298;2023-12-20T03:26:17;123.37;;;56.97;;
22937;SDS011;11634;42.734;23.298;2023-12-20T03:28:45;138.47;;;56.23;;
22937;SDS011;11634;42.734;23.298;2023-12-20T03:31:12;225.87;;;65.07;;
22937;SDS011;11634;42.734;23.298;2023-12-20T03:33:40;215.70;;;65.60;;
22937;SDS011;11634;42.734;23.298;2023-12-20T03:36:09;231.33;;;65.80;;
22937;SDS011;11634;42.734;23.298;2023-12-20T03:38:35;180.73;;;60.50;;
22937;SDS011;11634;42.734;23.298;2023-12-20T03:41:02;184.63;;;58.43;;
22937;SDS011;11634;42.734;23.298;2023-12-20T03:43:29;330.33;;;71.10;;
22937;SDS011;11634;42.734;23.298;2023-12-20T03:45:54;231.20;;;95.87;;
22937;SDS011;11634;42.734;23.298;2023-12-20T03:48:21;205.80;;;59.90;;
22937;SDS011;11634;42.734;23.298;2023-12-20T03:50:49;170.87;;;57.47;;
22937;SDS011;11634;42.734;23.298;2023-12-20T03:53:14;160.37;;;59.00;;
22937;SDS011;11634;42.734;23.298;2023-12-20T03:55:40;139.07;;;55.20;;
22937;SDS011;11634;42.734;23.298;2023-12-20T03:58:05;109.10;;;51.47;;
22937;SDS011;11634;42.734;23.298;2023-12-20T04:00:32;145.13;;;53.00;;
22937;SDS011;11634;42.734;23.298;2023-12-20T04:02:59;171.03;;;55.33;;
22937;SDS011;11634;42.734;23.298;2023-12-20T04:05:26;166.13;;;56.73;;
22937;SDS011;11634;42.734;23.298;2023-12-20T04:07:51;207.33;;;57.10;;
22937;SDS011;11634;42.734;23.298;2023-12-20T04:10:17;160.10;;;55.27;;
22937;SDS011;11634;42.734;23.298;2023-12-20T04:12:44;187.00;;;50.80;;
22937;SDS011;11634;42.734;23.298;2023-12-20T04:15:09;146.87;;;50.57;;
22937;SDS011;11634;42.734;23.298;2023-12-20T04:17:38;296.47;;;58.27;;
22937;SDS011;11634;42.734;23.298;2023-12-20T04:20:05;202.27;;;52.47;;
22937;SDS011;11634;42.734;23.298;2023-12-20T04:22:33;184.97;;;55.07;;
22937;SDS011;11634;42.734;23.298;2023-12-20T04:25:00;146.53;;;59.87;;
22937;SDS011;11634;42.734;23.298;2023-12-20T04:27:26;286.07;;;78.83;;
22937;SDS011;11634;42.734;23.298;2023-12-20T04:29:52;230.40;;;60.97;;
22937;SDS011;11634;42.734;23.298;2023-12-20T04:32:17;225.13;;;57.73;;
22937;SDS011;11634;42.734;23.298;2023-12-20T04:34:44;180.90;;;54.60;;
22937;SDS011;11634;42.734;23.298;2023-12-20T04:37:10;200.83;;;53.73;;
22937;SDS011;11634;42.734;23.298;2023-12-20T04:39:36;203.97;;;55.80;;
22937;SDS011;11634;42.734;23.298;2023-12-20T04:42:02;213.37;;;55.70;;
22937;SDS011;11634;42.734;23.298;2023-12-20T04:44:28;174.60;;;50.03;;
22937;SDS011;11634;42.734;23.298;2023-12-20T04:46:53;111.97;;;46.93;;
22937;SDS011;11634;42.734;23.298;2023-12-20T04:49:20;112.73;;;45.13;;
22937;SDS011;11634;42.734;23.298;2023-12-20T04:51:46;174.17;;;50.27;;
22937;SDS011;11634;42.734;23.298;2023-12-20T04:54:39;184.60;;;49.73;;
22937;SDS011;11634;42.734;23.298;2023-12-20T04:57:05;183.80;;;53.73;;
22937;SDS011;11634;42.734;23.298;2023-12-20T04:59:32;256.93;;;59.20;;
22937;SDS011;11634;42.734;23.298;2023-12-20T05:02:04;94.63;;;41.17;;
22937;SDS011;11634;42.734;23.298;2023-12-20T05:04:30;218.00;;;52.73;;
22937;SDS011;11634;42.734;23.298;2023-12-20T05:06:57;240.87;;;52.03;;
22937;SDS011;11634;42.734;23.298;2023-12-20T05:09:24;315.10;;;59.47;;
22937;SDS011;11634;42.734;23.298;2023-12-20T05:11:49;186.23;;;53.80;;
22937;SDS011;11634;42.734;23.298;2023-12-20T05:14:16;164.93;;;49.57;;
22937;SDS011;11634;42.734;23.298;2023-12-20T05:16:45;118.03;;;44.77;;
22937;SDS011;11634;42.734;23.298;2023-12-20T05:19:10;120.63;;;46.27;;
22937;SDS011;11634;42.734;23.298;2023-12-20T05:21:38;106.70;;;39.87;;
22937;SDS011;11634;42.734;23.298;2023-12-20T05:24:04;102.33;;;41.40;;
22937;SDS011;11634;42.734;23.298;2023-12-20T05:26:30;118.33;;;44.17;;
22937;SDS011;11634;42.734;23.298;2023-12-20T05:28:56;146.20;;;45.07;;
22937;SDS011;11634;42.734;23.298;2023-12-20T05:31:21;82.17;;;36.20;;
22937;SDS011;11634;42.734;23.298;2023-12-20T05:33:48;87.53;;;35.27;;
22937;SDS011;11634;42.734;23.298;2023-12-20T05:36:17;62.10;;;31.40;;
22937;SDS011;11634;42.734;23.298;2023-12-20T05:38:42;102.80;;;36.53;;
22937;SDS011;11634;42.734;23.298;2023-12-20T05:41:09;75.33;;;33.60;;
22937;SDS011;11634;42.734;23.298;2023-12-20T05:43:35;92.13;;;33.40;;
22937;SDS011;11634;42.734;23.298;2023-12-20T05:46:01;73.43;;;31.50;;
22937;SDS011;11634;42.734;23.298;2023-12-20T05:48:31;65.03;;;29.20;;
22937;SDS011;11634;42.734;23.298;2023-12-20T05:50:57;74.67;;;33.10;;
22937;SDS011;11634;42.734;23.298;2023-12-20T05:53:23;78.10;;;34.10;;
22937;SDS011;11634;42.734;23.298;2023-12-20T05:55:51;93.60;;;36.60;;
22937;SDS011;11634;42.734;23.298;2023-12-20T05:58:16;109.20;;;34.53;;
22937;SDS011;11634;42.734;23.298;2023-12-20T06:00:43;116.63;;;35.83;;
22937;SDS011;11634;42.734;23.298;2023-12-20T06:03:09;158.67;;;37.17;;
22937;SDS011;11634;42.734;23.298;2023-12-20T06:05:35;119.10;;;37.67;;
22937;SDS011;11634;42.734;23.298;2023-12-20T06:08:00;114.40;;;42.53;;
22937;SDS011;11634;42.734;23.298;2023-12-20T06:10:30;121.57;;;41.97;;
22937;SDS011;11634;42.734;23.298;2023-12-20T06:12:56;175.57;;;45.73;;
22937;SDS011;11634;42.734;23.298;2023-12-20T06:15:25;141.53;;;44.47;;
22937;SDS011;11634;42.734;23.298;2023-12-20T06:17:52;173.60;;;48.00;;
22937;SDS011;11634;42.734;23.298;2023-12-20T06:20:17;108.17;;;43.43;;
22937;SDS011;11634;42.734;23.298;2023-12-20T06:22:44;111.40;;;50.00;;
22937;SDS011;11634;42.734;23.298;2023-12-20T06:25:37;96.73;;;44.80;;
22937;SDS011;11634;42.734;23.298;2023-12-20T06:28:03;187.30;;;52.63;;
22937;SDS011;11634;42.734;23.298;2023-12-20T06:30:29;123.30;;;46.50;;
22937;SDS011;11634;42.734;23.298;2023-12-20T06:32:56;129.37;;;48.00;;
22937;SDS011;11634;42.734;23.298;2023-12-20T06:35:23;127.13;;;46.83;;
22937;SDS011;11634;42.734;23.298;2023-12-20T06:37:51;140.43;;;47.47;;
22937;SDS011;11634;42.734;23.298;2023-12-20T06:40:17;141.10;;;46.20;;
22937;SDS011;11634;42.734;23.298;2023-12-20T06:42:48;178.10;;;53.13;;
22937;SDS011;11634;42.734;23.298;2023-12-20T06:45:13;194.13;;;55.17;;
22937;SDS011;11634;42.734;23.298;2023-12-20T06:47:39;196.20;;;54.17;;
22937;SDS011;11634;42.734;23.298;2023-12-20T06:50:05;179.63;;;58.40;;
22937;SDS011;11634;42.734;23.298;2023-12-20T06:52:31;184.50;;;56.90;;
22937;SDS011;11634;42.734;23.298;2023-12-20T06:55:01;130.53;;;51.10;;
22937;SDS011;11634;42.734;23.298;2023-12-20T06:57:47;137.03;;;57.90;;
22937;SDS011;11634;42.734;23.298;2023-12-20T07:00:40;181.13;;;59.97;;
22937;SDS011;11634;42.734;23.298;2023-12-20T07:03:06;167.93;;;59.80;;
22937;SDS011;11634;42.734;23.298;2023-12-20T07:05:31;166.00;;;62.13;;
22937;SDS011;11634;42.734;23.298;2023-12-20T07:07:58;187.17;;;68.83;;
22937;SDS011;11634;42.734;23.298;2023-12-20T07:10:23;241.93;;;67.10;;
22937;SDS011;11634;42.734;23.298;2023-12-20T07:12:49;179.63;;;68.53;;
22937;SDS011;11634;42.734;23.298;2023-12-20T07:15:16;197.60;;;70.00;;
22937;SDS011;11634;42.734;23.298;2023-12-20T07:17:41;182.97;;;67.37;;
22937;SDS011;11634;42.734;23.298;2023-12-20T07:20:07;204.50;;;70.27;;
22937;SDS011;11634;42.734;23.298;2023-12-20T07:22:36;175.07;;;69.13;;
22937;SDS011;11634;42.734;23.298;2023-12-20T07:25:01;175.07;;;55.70;;
22937;SDS011;11634;42.734;23.298;2023-12-20T07:27:27;215.23;;;61.43;;
22937;SDS011;11634;42.734;23.298;2023-12-20T07:29:53;231.03;;;63.80;;
22937;SDS011;11634;42.734;23.298;2023-12-20T07:32:18;235.27;;;71.07;;
22937;SDS011;11634;42.734;23.298;2023-12-20T07:34:44;196.63;;;65.27;;
22937;SDS011;11634;42.734;23.298;2023-12-20T07:37:10;188.97;;;67.27;;
22937;SDS011;11634;42.734;23.298;2023-12-20T07:39:37;244.90;;;70.40;;
22937;SDS011;11634;42.734;23.298;2023-12-20T07:42:29;218.37;;;64.03;;
22937;SDS011;11634;42.734;23.298;2023-12-20T07:44:58;226.40;;;64.53;;
22937;SDS011;11634;42.734;23.298;2023-12-20T07:47:24;209.03;;;67.57;;
22937;SDS011;11634;42.734;23.298;2023-12-20T07:49:53;144.57;;;60.90;;
22937;SDS011;11634;42.734;23.298;2023-12-20T07:52:21;260.40;;;63.47;;
22937;SDS011;11634;42.734;23.298;2023-12-20T07:54:48;242.47;;;61.53;;
22937;SDS011;11634;42.734;23.298;2023-12-20T07:57:14;248.33;;;62.37;;
22937;SDS011;11634;42.734;23.298;2023-12-20T07:59:39;156.50;;;62.53;;
22937;SDS011;11634;42.734;23.298;2023-12-20T08:02:05;219.43;;;66.90;;
22937;SDS011;11634;42.734;23.298;2023-12-20T08:04:32;223.07;;;69.13;;
22937;SDS011;11634;42.734;23.298;2023-12-20T08:06:58;212.53;;;69.47;;
22937;SDS011;11634;42.734;23.298;2023-12-20T08:09:26;204.53;;;66.20;;
22937;SDS011;11634;42.734;23.298;2023-12-20T08:12:04;145.10;;;62.23;;
22937;SDS011;11634;42.734;23.298;2023-12-20T08:14:31;160.00;;;62.97;;
22937;SDS011;11634;42.734;23.298;2023-12-20T08:16:57;168.43;;;60.90;;
22937;SDS011;11634;42.734;23.298;2023-12-20T08:19:23;125.93;;;57.23;;
22937;SDS011;11634;42.734;23.298;2023-12-20T08:21:49;162.90;;;59.87;;
22937;SDS011;11634;42.734;23.298;2023-12-20T08:24:16;130.60;;;58.10;;
22937;SDS011;11634;42.734;23.298;2023-12-20T08:26:44;128.07;;;57.23;;
22937;SDS011;11634;42.734;23.298;2023-12-20T08:29:56;123.63;;;56.97;;
22937;SDS011;11634;42.734;23.298;2023-12-20T08:32:24;109.90;;;53.53;;
22937;SDS011;11634;42.734;23.298;2023-12-20T08:34:50;121.17;;;58.17;;
22937;SDS011;11634;42.734;23.298;2023-12-20T08:37:16;119.80;;;57.40;;
22937;SDS011;11634;42.734;23.298;2023-12-20T08:39:41;117.63;;;55.60;;
22937;SDS011;11634;42.734;23.298;2023-12-20T08:42:08;128.00;;;61.20;;
22937;SDS011;11634;42.734;23.298;2023-12-20T08:44:34;122.30;;;58.57;;
22937;SDS011;11634;42.734;23.298;2023-12-20T08:46:59;111.67;;;59.27;;
22937;SDS011;11634;42.734;23.298;2023-12-20T08:49:25;130.17;;;61.90;;
22937;SDS011;11634;42.734;23.298;2023-12-20T08:51:51;108.70;;;58.27;;
22937;SDS011;11634;42.734;23.298;2023-12-20T08:54:16;115.30;;;57.17;;
22937;SDS011;11634;42.734;23.298;2023-12-20T08:56:42;115.77;;;56.97;;
22937;SDS011;11634;42.734;23.298;2023-12-20T08:59:08;112.87;;;57.07;;
22937;SDS011;11634;42.734;23.298;2023-12-20T09:01:34;115.60;;;57.03;;
22937;SDS011;11634;42.734;23.298;2023-12-20T09:04:00;125.07;;;60.37;;
22937;SDS011;11634;42.734;23.298;2023-12-20T09:06:25;120.77;;;59.60;;
22937;SDS011;11634;42.734;23.298;2023-12-20T09:08:51;119.77;;;59.93;;
22937;SDS011;11634;42.734;23.298;2023-12-20T09:11:18;129.13;;;60.67;;
22937;SDS011;11634;42.734;23.298;2023-12-20T09:13:44;118.50;;;57.50;;
22937;SDS011;11634;42.734;23.298;2023-12-20T09:16:10;127.73;;;59.83;;
22937;SDS011;11634;42.734;23.298;2023-12-20T09:18:35;124.70;;;62.30;;
22937;SDS011;11634;42.734;23.298;2023-12-20T09:21:01;132.87;;;62.40;;
22937;SDS011;11634;42.734;23.298;2023-12-20T09:23:30;132.03;;;62.47;;
22937;SDS011;11634;42.734;23.298;2023-12-20T09:25:56;128.53;;;61.90;;
22937;SDS011;11634;42.734;23.298;2023-12-20T09:28:21;126.67;;;60.87;;
22937;SDS011;11634;42.734;23.298;2023-12-20T09:30:46;119.33;;;58.20;;
22937;SDS011;11634;42.734;23.298;2023-12-20T09:33:13;122.53;;;57.53;;
22937;SDS011;11634;42.734;23.298;2023-12-20T09:35:39;123.23;;;58.20;;
22937;SDS011;11634;42.734;23.298;2023-12-20T09:38:04;128.83;;;60.50;;
22937;SDS011;11634;42.734;23.298;2023-12-20T09:40:30;129.67;;;59.80;;
22937;SDS011;11634;42.734;23.298;2023-12-20T09:42:58;136.93;;;64.20;;
22937;SDS011;11634;42.734;23.298;2023-12-20T09:45:24;141.53;;;65.33;;
22937;SDS011;11634;42.734;23.298;2023-12-20T09:47:50;139.67;;;65.90;;
22937;SDS011;11634;42.734;23.298;2023-12-20T09:50:20;129.30;;;60.00;;
22937;SDS011;11634;42.734;23.298;2023-12-20T09:52:50;137.93;;;64.63;;
22937;SDS011;11634;42.734;23.298;2023-12-20T09:55:19;135.67;;;63.40;;
22937;SDS011;11634;42.734;23.298;2023-12-20T09:57:45;139.00;;;64.00;;
22937;SDS011;11634;42.734;23.298;2023-12-20T10:00:11;131.20;;;61.67;;
22937;SDS011;11634;42.734;23.298;2023-12-20T10:02:38;130.77;;;63.03;;
22937;SDS011;11634;42.734;23.298;2023-12-20T10:05:06;125.30;;;60.40;;
22937;SDS011;11634;42.734;23.298;2023-12-20T10:07:34;121.33;;;60.00;;
22937;SDS011;11634;42.734;23.298;2023-12-20T10:10:00;124.40;;;59.03;;
22937;SDS011;11634;42.734;23.298;2023-12-20T10:12:27;126.27;;;62.00;;
22937;SDS011;11634;42.734;23.298;2023-12-20T10:14:53;133.50;;;62.07;;
22937;SDS011;11634;42.734;23.298;2023-12-20T10:17:18;127.85;;;63.00;;
22937;SDS011;11634;42.734;23.298;2023-12-20T10:19:43;117.28;;;60.60;;
22937;SDS011;11634;42.734;23.298;2023-12-20T10:22:09;122.43;;;62.40;;
22937;SDS011;11634;42.734;23.298;2023-12-20T10:24:35;132.90;;;64.18;;
22937;SDS011;11634;42.734;23.298;2023-12-20T10:27:01;127.85;;;64.95;;
22937;SDS011;11634;42.734;23.298;2023-12-20T10:29:47;132.60;;;66.33;;
22937;SDS011;11634;42.734;23.298;2023-12-20T10:34:48;147.70;;;68.23;;
22937;SDS011;11634;42.734;23.298;2023-12-20T10:37:13;118.00;;;61.95;;
22937;SDS011;11634;42.734;23.298;2023-12-20T10:39:39;128.13;;;65.10;;
22937;SDS011;11634;42.734;23.298;2023-12-20T10:42:08;128.90;;;66.13;;
22937;SDS011;11634;42.734;23.298;2023-12-20T10:44:34;128.40;;;68.32;;
22937;SDS011;11634;42.734;23.298;2023-12-20T10:47:00;126.45;;;66.32;;
22937;SDS011;11634;42.734;23.298;2023-12-20T10:49:26;126.45;;;64.35;;
22937;SDS011;11634;42.734;23.298;2023-12-20T10:51:53;119.97;;;59.95;;
22937;SDS011;11634;42.734;23.298;2023-12-20T10:54:19;121.95;;;61.28;;
22937;SDS011;11634;42.734;23.298;2023-12-20T10:56:45;126.43;;;64.93;;
22937;SDS011;11634;42.734;23.298;2023-12-20T10:59:11;131.63;;;65.07;;
22937;SDS011;11634;42.734;23.298;2023-12-20T11:01:38;122.63;;;64.90;;
22937;SDS011;11634;42.734;23.298;2023-12-20T11:04:04;133.80;;;69.95;;
22937;SDS011;11634;42.734;23.298;2023-12-20T11:06:51;129.15;;;65.38;;
22937;SDS011;11634;42.734;23.298;2023-12-20T11:10:20;124.63;;;67.83;;
22937;SDS011;11634;42.734;23.298;2023-12-20T11:12:24;126.10;;;64.20;;
22937;SDS011;11634;42.734;23.298;2023-12-20T11:14:52;130.02;;;71.65;;
22937;SDS011;11634;42.734;23.298;2023-12-20T11:17:19;128.60;;;67.43;;
22937;SDS011;11634;42.734;23.298;2023-12-20T11:22:24;133.43;;;72.03;;
22937;SDS011;11634;42.734;23.298;2023-12-20T11:24:51;144.33;;;75.93;;
22937;SDS011;11634;42.734;23.298;2023-12-20T11:27:18;143.37;;;76.67;;
22937;SDS011;11634;42.734;23.298;2023-12-20T11:29:43;161.17;;;84.83;;
22937;SDS011;11634;42.734;23.298;2023-12-20T11:32:30;154.57;;;82.27;;
22937;SDS011;11634;42.734;23.298;2023-12-20T11:37:28;178.70;;;93.70;;
22937;SDS011;11634;42.734;23.298;2023-12-20T11:40:00;205.20;;;111.07;;
22937;SDS011;11634;42.734;23.298;2023-12-20T11:42:25;211.83;;;116.80;;
22937;SDS011;11634;42.734;23.298;2023-12-20T11:44:54;204.30;;;112.40;;
22937;SDS011;11634;42.734;23.298;2023-12-20T11:47:30;213.87;;;112.93;;
22937;SDS011;11634;42.734;23.298;2023-12-20T11:50:00;208.13;;;110.37;;
22937;SDS011;11634;42.734;23.298;2023-12-20T11:53:00;201.03;;;95.37;;
22937;SDS011;11634;42.734;23.298;2023-12-20T11:55:47;236.73;;;120.57;;
22937;SDS011;11634;42.734;23.298;2023-12-20T11:58:15;206.23;;;110.10;;
22937;SDS011;11634;42.734;23.298;2023-12-20T12:00:42;234.37;;;126.27;;
22937;SDS011;11634;42.734;23.298;2023-12-20T12:03:14;240.63;;;122.47;;
22937;SDS011;11634;42.734;23.298;2023-12-20T12:05:55;248.10;;;125.40;;
22937;SDS011;11634;42.734;23.298;2023-12-20T12:08:21;232.50;;;117.50;;
22937;SDS011;11634;42.734;23.298;2023-12-20T12:10:46;242.97;;;130.50;;
22937;SDS011;11634;42.734;23.298;2023-12-20T12:13:12;240.23;;;125.87;;
22937;SDS011;11634;42.734;23.298;2023-12-20T12:15:40;224.97;;;119.30;;
22937;SDS011;11634;42.734;23.298;2023-12-20T12:18:07;216.83;;;111.07;;
22937;SDS011;11634;42.734;23.298;2023-12-20T12:20:33;217.90;;;109.00;;
22937;SDS011;11634;42.734;23.298;2023-12-20T12:23:03;203.40;;;96.17;;
22937;SDS011;11634;42.734;23.298;2023-12-20T12:25:30;193.10;;;98.13;;
22937;SDS011;11634;42.734;23.298;2023-12-20T12:27:59;195.53;;;97.77;;
22937;SDS011;11634;42.734;23.298;2023-12-20T12:30:25;191.00;;;96.37;;
22937;SDS011;11634;42.734;23.298;2023-12-20T12:32:51;156.95;;;73.50;;
22937;SDS011;11634;42.734;23.298;2023-12-20T12:35:19;167.50;;;84.20;;
22937;SDS011;11634;42.734;23.298;2023-12-20T12:37:45;165.10;;;83.57;;
22937;SDS011;11634;42.734;23.298;2023-12-20T12:40:14;145.43;;;76.20;;
22937;SDS011;11634;42.734;23.298;2023-12-20T12:42:40;174.17;;;85.23;;
22937;SDS011;11634;42.734;23.298;2023-12-20T12:45:07;178.30;;;87.10;;
22937;SDS011;11634;42.734;23.298;2023-12-20T12:47:34;161.37;;;81.23;;
22937;SDS011;11634;42.734;23.298;2023-12-20T12:50:01;154.07;;;76.97;;
22937;SDS011;11634;42.734;23.298;2023-12-20T12:52:26;175.87;;;81.67;;
22937;SDS011;11634;42.734;23.298;2023-12-20T12:54:54;157.37;;;71.87;;
22937;SDS011;11634;42.734;23.298;2023-12-20T12:57:20;158.60;;;76.07;;
22937;SDS011;11634;42.734;23.298;2023-12-20T12:59:46;167.80;;;83.97;;
22937;SDS011;11634;42.734;23.298;2023-12-20T13:02:12;161.40;;;76.67;;
22937;SDS011;11634;42.734;23.298;2023-12-20T13:04:41;178.87;;;80.73;;
22937;SDS011;11634;42.734;23.298;2023-12-20T13:07:09;172.67;;;78.00;;
22937;SDS011;11634;42.734;23.298;2023-12-20T13:09:39;193.60;;;81.30;;
22937;SDS011;11634;42.734;23.298;2023-12-20T13:12:10;175.17;;;78.40;;
22937;SDS011;11634;42.734;23.298;2023-12-20T13:14:38;195.00;;;75.83;;
22937;SDS011;11634;42.734;23.298;2023-12-20T13:17:04;152.23;;;76.93;;
22937;SDS011;11634;42.734;23.298;2023-12-20T13:19:30;186.90;;;76.40;;
22937;SDS011;11634;42.734;23.298;2023-12-20T13:21:56;263.77;;;79.77;;
22937;SDS011;11634;42.734;23.298;2023-12-20T13:24:23;170.33;;;72.77;;
22937;SDS011;11634;42.734;23.298;2023-12-20T13:26:48;192.27;;;83.93;;
22937;SDS011;11634;42.734;23.298;2023-12-20T13:29:13;187.70;;;79.87;;
22937;SDS011;11634;42.734;23.298;2023-12-20T13:31:39;135.63;;;58.73;;
22937;SDS011;11634;42.734;23.298;2023-12-20T13:34:06;211.30;;;69.03;;
22937;SDS011;11634;42.734;23.298;2023-12-20T13:36:31;240.17;;;71.03;;
22937;SDS011;11634;42.734;23.298;2023-12-20T13:38:57;130.03;;;56.53;;
22937;SDS011;11634;42.734;23.298;2023-12-20T13:41:24;207.20;;;70.73;;
22937;SDS011;11634;42.734;23.298;2023-12-20T13:43:50;153.57;;;74.63;;
22937;SDS011;11634;42.734;23.298;2023-12-20T13:46:16;191.73;;;82.27;;
22937;SDS011;11634;42.734;23.298;2023-12-20T13:48:42;200.27;;;86.13;;
22937;SDS011;11634;42.734;23.298;2023-12-20T13:51:08;181.50;;;82.83;;
22937;SDS011;11634;42.734;23.298;2023-12-20T13:53:33;181.23;;;82.13;;
22937;SDS011;11634;42.734;23.298;2023-12-20T13:55:59;175.63;;;80.97;;
22937;SDS011;11634;42.734;23.298;2023-12-20T13:58:25;235.33;;;84.47;;
22937;SDS011;11634;42.734;23.298;2023-12-20T14:00:51;222.07;;;83.80;;
22937;SDS011;11634;42.734;23.298;2023-12-20T14:03:16;230.73;;;82.87;;
22937;SDS011;11634;42.734;23.298;2023-12-20T14:05:42;179.90;;;80.00;;